sensor_id;sensor_type;location;lat;lon;timestamp;P1;durP1;ratioP1;P2;durP2;ratioP2
14592;SDS011;7383;52.354;9.756;2023-02-20T00:00:50;5.70;;;5.20;;
14592;SDS011;7383;52.354;9.756;2023-02-20T00:03:18;5.32;;;4.82;;
14592;SDS011;7383;52.354;9.756;2023-02-20T00:05:47;5.00;;;4.60;;
14592;SDS011;7383;52.354;9.756;2023-02-20T00:08:15;4.78;;;4.40;;
14592;SDS011;7383;52.354;9.756;2023-02-20T00:10:42;4.65;;;4.25;;
14592;SDS011;7383;52.354;9.756;2023-02-20T00:13:11;4.95;;;4.65;;
14592;SDS011;7383;52.354;9.756;2023-02-20T00:15:37;4.55;;;4.15;;
14592;SDS011;7383;52.354;9.756;2023-02-20T00:18:04;4.10;;;3.80;;
14592;SDS011;7383;52.354;9.756;2023-02-20T00:20:31;4.80;;;4.25;;
14592;SDS011;7383;52.354;9.756;2023-02-20T00:23:00;4.30;;;4.00;;
14592;SDS011;7383;52.354;9.756;2023-02-20T00:25:28;4.75;;;4.13;;
14592;SDS011;7383;52.354;9.756;2023-02-20T00:27:54;4.25;;;3.95;;
14592;SDS011;7383;52.354;9.756;2023-02-20T00:30:23;4.13;;;3.83;;
14592;SDS011;7383;52.354;9.756;2023-02-20T00:32:53;4.10;;;3.80;;
14592;SDS011;7383;52.354;9.756;2023-02-20T00:35:21;4.43;;;4.13;;
14592;SDS011;7383;52.354;9.756;2023-02-20T00:37:48;4.40;;;4.07;;
14592;SDS011;7383;52.354;9.756;2023-02-20T00:40:16;3.67;;;3.42;;
14592;SDS011;7383;52.354;9.756;2023-02-20T00:42:48;4.38;;;4.05;;
14592;SDS011;7383;52.354;9.756;2023-02-20T00:45:16;4.72;;;4.43;;
14592;SDS011;7383;52.354;9.756;2023-02-20T00:47:43;4.50;;;4.10;;
14592;SDS011;7383;52.354;9.756;2023-02-20T00:50:11;4.20;;;3.90;;
14592;SDS011;7383;52.354;9.756;2023-02-20T00:52:39;4.20;;;3.80;;
14592;SDS011;7383;52.354;9.756;2023-02-20T00:55:06;4.70;;;4.32;;
14592;SDS011;7383;52.354;9.756;2023-02-20T00:57:32;4.18;;;3.88;;
14592;SDS011;7383;52.354;9.756;2023-02-20T01:00:01;4.05;;;3.75;;
14592;SDS011;7383;52.354;9.756;2023-02-20T01:02:30;4.30;;;4.00;;
14592;SDS011;7383;52.354;9.756;2023-02-20T01:04:57;4.38;;;3.97;;
14592;SDS011;7383;52.354;9.756;2023-02-20T01:07:28;4.60;;;4.15;;
14592;SDS011;7383;52.354;9.756;2023-02-20T01:09:56;4.35;;;4.05;;
14592;SDS011;7383;52.354;9.756;2023-02-20T01:12:23;3.83;;;3.60;;
14592;SDS011;7383;52.354;9.756;2023-02-20T01:14:52;3.78;;;3.50;;
14592;SDS011;7383;52.354;9.756;2023-02-20T01:17:20;4.55;;;4.15;;
14592;SDS011;7383;52.354;9.756;2023-02-20T01:19:46;4.20;;;3.90;;
14592;SDS011;7383;52.354;9.756;2023-02-20T01:22:13;4.35;;;3.97;;
14592;SDS011;7383;52.354;9.756;2023-02-20T01:24:39;4.30;;;4.00;;
14592;SDS011;7383;52.354;9.756;2023-02-20T01:27:07;4.15;;;3.85;;
14592;SDS011;7383;52.354;9.756;2023-02-20T01:29:34;4.30;;;4.00;;
14592;SDS011;7383;52.354;9.756;2023-02-20T01:32:01;3.67;;;3.47;;
14592;SDS011;7383;52.354;9.756;2023-02-20T01:34:28;3.72;;;3.42;;
14592;SDS011;7383;52.354;9.756;2023-02-20T01:36:55;3.90;;;3.60;;
14592;SDS011;7383;52.354;9.756;2023-02-20T01:39:23;3.47;;;3.28;;
14592;SDS011;7383;52.354;9.756;2023-02-20T01:41:52;3.30;;;3.10;;
14592;SDS011;7383;52.354;9.756;2023-02-20T01:44:21;3.47;;;3.22;;
14592;SDS011;7383;52.354;9.756;2023-02-20T01:46:50;3.25;;;3.05;;
14592;SDS011;7383;52.354;9.756;2023-02-20T01:49:22;3.72;;;3.42;;
14592;SDS011;7383;52.354;9.756;2023-02-20T01:51:59;3.25;;;3.05;;
14592;SDS011;7383;52.354;9.756;2023-02-20T01:54:30;3.83;;;3.53;;
14592;SDS011;7383;52.354;9.756;2023-02-20T01:57:02;3.85;;;3.55;;
14592;SDS011;7383;52.354;9.756;2023-02-20T01:59:32;3.90;;;3.60;;
14592;SDS011;7383;52.354;9.756;2023-02-20T02:02:03;3.72;;;3.53;;
14592;SDS011;7383;52.354;9.756;2023-02-20T02:04:31;3.30;;;3.10;;
14592;SDS011;7383;52.354;9.756;2023-02-20T02:07:00;3.78;;;3.58;;
14592;SDS011;7383;52.354;9.756;2023-02-20T02:09:31;4.00;;;3.70;;
14592;SDS011;7383;52.354;9.756;2023-02-20T02:12:04;3.35;;;3.15;;
14592;SDS011;7383;52.354;9.756;2023-02-20T02:14:31;3.92;;;3.63;;
14592;SDS011;7383;52.354;9.756;2023-02-20T02:17:03;4.60;;;4.30;;
14592;SDS011;7383;52.354;9.756;2023-02-20T02:19:48;4.10;;;3.80;;
14592;SDS011;7383;52.354;9.756;2023-02-20T02:22:42;4.38;;;4.07;;
14592;SDS011;7383;52.354;9.756;2023-02-20T02:25:35;4.35;;;4.05;;
14592;SDS011;7383;52.354;9.756;2023-02-20T02:31:32;4.85;;;4.47;;
14592;SDS011;7383;52.354;9.756;2023-02-20T02:34:25;5.30;;;4.90;;
14592;SDS011;7383;52.354;9.756;2023-02-20T02:37:22;5.05;;;4.65;;
14592;SDS011;7383;52.354;9.756;2023-02-20T02:39:55;4.80;;;4.50;;
14592;SDS011;7383;52.354;9.756;2023-02-20T02:42:27;4.90;;;4.50;;
14592;SDS011;7383;52.354;9.756;2023-02-20T02:45:00;5.35;;;4.95;;
14592;SDS011;7383;52.354;9.756;2023-02-20T02:47:32;5.00;;;4.60;;
14592;SDS011;7383;52.354;9.756;2023-02-20T02:50:07;4.88;;;4.57;;
14592;SDS011;7383;52.354;9.756;2023-02-20T02:52:39;5.40;;;5.00;;
14592;SDS011;7383;52.354;9.756;2023-02-20T02:55:14;5.25;;;4.85;;
14592;SDS011;7383;52.354;9.756;2023-02-20T02:57:43;6.05;;;5.55;;
14592;SDS011;7383;52.354;9.756;2023-02-20T03:00:11;5.15;;;4.70;;
14592;SDS011;7383;52.354;9.756;2023-02-20T03:02:42;6.05;;;5.55;;
14592;SDS011;7383;52.354;9.756;2023-02-20T03:05:14;5.47;;;5.05;;
14592;SDS011;7383;52.354;9.756;2023-02-20T03:07:47;5.65;;;5.25;;
14592;SDS011;7383;52.354;9.756;2023-02-20T03:12:52;5.70;;;5.20;;
14592;SDS011;7383;52.354;9.756;2023-02-20T03:15:20;5.35;;;4.95;;
14592;SDS011;7383;52.354;9.756;2023-02-20T03:18:00;5.68;;;5.18;;
14592;SDS011;7383;52.354;9.756;2023-02-20T03:20:35;5.82;;;5.32;;
14592;SDS011;7383;52.354;9.756;2023-02-20T03:23:05;5.80;;;5.40;;
14592;SDS011;7383;52.354;9.756;2023-02-20T03:25:35;5.65;;;5.25;;
14592;SDS011;7383;52.354;9.756;2023-02-20T03:28:05;6.25;;;5.70;;
14592;SDS011;7383;52.354;9.756;2023-02-20T03:30:36;6.40;;;5.80;;
14592;SDS011;7383;52.354;9.756;2023-02-20T03:33:10;5.95;;;5.45;;
14592;SDS011;7383;52.354;9.756;2023-02-20T03:35:58;6.97;;;6.38;;
14592;SDS011;7383;52.354;9.756;2023-02-20T03:38:48;6.65;;;6.03;;
14592;SDS011;7383;52.354;9.756;2023-02-20T03:41:37;7.25;;;6.65;;
14592;SDS011;7383;52.354;9.756;2023-02-20T03:44:24;6.88;;;6.30;;
14592;SDS011;7383;52.354;9.756;2023-02-20T03:46:53;6.70;;;6.20;;
14592;SDS011;7383;52.354;9.756;2023-02-20T03:49:24;7.07;;;6.47;;
14592;SDS011;7383;52.354;9.756;2023-02-20T03:51:55;7.40;;;6.80;;
14592;SDS011;7383;52.354;9.756;2023-02-20T03:54:25;7.75;;;6.97;;
14592;SDS011;7383;52.354;9.756;2023-02-20T03:56:55;7.30;;;6.70;;
14592;SDS011;7383;52.354;9.756;2023-02-20T03:59:25;8.00;;;7.30;;
14592;SDS011;7383;52.354;9.756;2023-02-20T04:01:56;7.75;;;7.05;;
14592;SDS011;7383;52.354;9.756;2023-02-20T04:04:27;8.95;;;8.15;;
14592;SDS011;7383;52.354;9.756;2023-02-20T04:06:58;9.02;;;8.23;;
14592;SDS011;7383;52.354;9.756;2023-02-20T04:09:30;9.15;;;8.25;;
14592;SDS011;7383;52.354;9.756;2023-02-20T04:12:02;9.18;;;8.38;;
14592;SDS011;7383;52.354;9.756;2023-02-20T04:14:33;9.15;;;8.35;;
14592;SDS011;7383;52.354;9.756;2023-02-20T04:17:02;10.05;;;9.15;;
14592;SDS011;7383;52.354;9.756;2023-02-20T04:19:35;9.50;;;8.63;;
14592;SDS011;7383;52.354;9.756;2023-02-20T04:22:03;9.63;;;8.73;;
14592;SDS011;7383;52.354;9.756;2023-02-20T04:24:35;10.05;;;9.15;;
14592;SDS011;7383;52.354;9.756;2023-02-20T04:27:08;9.40;;;8.52;;
14592;SDS011;7383;52.354;9.756;2023-02-20T04:29:37;9.80;;;8.90;;
14592;SDS011;7383;52.354;9.756;2023-02-20T04:32:04;9.98;;;9.07;;
14592;SDS011;7383;52.354;9.756;2023-02-20T04:34:30;9.93;;;9.02;;
14592;SDS011;7383;52.354;9.756;2023-02-20T04:37:02;10.82;;;9.82;;
14592;SDS011;7383;52.354;9.756;2023-02-20T04:39:32;10.05;;;9.15;;
14592;SDS011;7383;52.354;9.756;2023-02-20T04:42:00;9.68;;;8.77;;
14592;SDS011;7383;52.354;9.756;2023-02-20T04:44:26;9.32;;;8.43;;
14592;SDS011;7383;52.354;9.756;2023-02-20T04:46:56;9.02;;;8.23;;
14592;SDS011;7383;52.354;9.756;2023-02-20T04:49:23;9.32;;;8.32;;
14592;SDS011;7383;52.354;9.756;2023-02-20T04:51:50;9.65;;;8.75;;
14592;SDS011;7383;52.354;9.756;2023-02-20T04:54:16;9.32;;;8.45;;
14592;SDS011;7383;52.354;9.756;2023-02-20T04:56:43;9.38;;;8.48;;
14592;SDS011;7383;52.354;9.756;2023-02-20T04:59:11;9.23;;;8.32;;
14592;SDS011;7383;52.354;9.756;2023-02-20T05:01:38;9.57;;;8.68;;
14592;SDS011;7383;52.354;9.756;2023-02-20T05:04:04;9.55;;;8.65;;
14592;SDS011;7383;52.354;9.756;2023-02-20T05:06:31;8.80;;;7.93;;
14592;SDS011;7383;52.354;9.756;2023-02-20T05:08:59;8.48;;;7.68;;
14592;SDS011;7383;52.354;9.756;2023-02-20T05:11:26;8.55;;;7.75;;
14592;SDS011;7383;52.354;9.756;2023-02-20T05:13:53;9.52;;;8.63;;
14592;SDS011;7383;52.354;9.756;2023-02-20T05:16:21;8.70;;;7.95;;
14592;SDS011;7383;52.354;9.756;2023-02-20T05:18:47;8.80;;;7.85;;
14592;SDS011;7383;52.354;9.756;2023-02-20T05:21:14;8.05;;;7.35;;
14592;SDS011;7383;52.354;9.756;2023-02-20T05:23:58;7.78;;;7.07;;
14592;SDS011;7383;52.354;9.756;2023-02-20T05:26:25;7.78;;;7.07;;
14592;SDS011;7383;52.354;9.756;2023-02-20T05:28:51;7.93;;;7.22;;
14592;SDS011;7383;52.354;9.756;2023-02-20T05:31:18;7.68;;;6.93;;
14592;SDS011;7383;52.354;9.756;2023-02-20T05:33:45;8.43;;;7.60;;
14592;SDS011;7383;52.354;9.756;2023-02-20T05:36:12;8.15;;;7.38;;
14592;SDS011;7383;52.354;9.756;2023-02-20T05:38:39;8.95;;;7.95;;
14592;SDS011;7383;52.354;9.756;2023-02-20T05:41:05;8.23;;;7.43;;
14592;SDS011;7383;52.354;9.756;2023-02-20T05:43:32;8.88;;;7.32;;
14592;SDS011;7383;52.354;9.756;2023-02-20T05:45:59;7.60;;;6.90;;
14592;SDS011;7383;52.354;9.756;2023-02-20T05:48:25;7.85;;;7.03;;
14592;SDS011;7383;52.354;9.756;2023-02-20T05:50:53;8.52;;;7.43;;
14592;SDS011;7383;52.354;9.756;2023-02-20T05:53:20;7.18;;;6.10;;
14592;SDS011;7383;52.354;9.756;2023-02-20T05:55:48;6.47;;;5.85;;
14592;SDS011;7383;52.354;9.756;2023-02-20T05:58:14;6.65;;;5.70;;
14592;SDS011;7383;52.354;9.756;2023-02-20T06:00:41;6.72;;;6.07;;
14592;SDS011;7383;52.354;9.756;2023-02-20T06:03:08;6.28;;;5.68;;
14592;SDS011;7383;52.354;9.756;2023-02-20T06:05:37;6.20;;;5.38;;
14592;SDS011;7383;52.354;9.756;2023-02-20T06:08:06;8.13;;;5.65;;
14592;SDS011;7383;52.354;9.756;2023-02-20T06:10:32;8.23;;;5.90;;
14592;SDS011;7383;52.354;9.756;2023-02-20T06:12:59;7.07;;;5.63;;
14592;SDS011;7383;52.354;9.756;2023-02-20T06:15:26;6.45;;;5.57;;
14592;SDS011;7383;52.354;9.756;2023-02-20T06:17:53;5.63;;;5.03;;
14592;SDS011;7383;52.354;9.756;2023-02-20T06:20:20;7.18;;;5.13;;
14592;SDS011;7383;52.354;9.756;2023-02-20T06:22:46;6.28;;;5.07;;
14592;SDS011;7383;52.354;9.756;2023-02-20T06:25:15;5.63;;;5.00;;
14592;SDS011;7383;52.354;9.756;2023-02-20T06:27:41;4.80;;;4.30;;
14592;SDS011;7383;52.354;9.756;2023-02-20T06:30:10;6.30;;;5.15;;
14592;SDS011;7383;52.354;9.756;2023-02-20T06:35:55;6.00;;;5.35;;
14592;SDS011;7383;52.354;9.756;2023-02-20T06:38:23;5.72;;;4.70;;
14592;SDS011;7383;52.354;9.756;2023-02-20T06:43:28;5.00;;;4.43;;
14592;SDS011;7383;52.354;9.756;2023-02-20T06:45:55;6.32;;;4.80;;
14592;SDS011;7383;52.354;9.756;2023-02-20T06:48:21;5.63;;;4.97;;
14592;SDS011;7383;52.354;9.756;2023-02-20T06:50:48;5.30;;;4.80;;
14592;SDS011;7383;52.354;9.756;2023-02-20T06:53:28;6.20;;;5.10;;
14592;SDS011;7383;52.354;9.756;2023-02-20T06:55:55;5.88;;;5.13;;
14592;SDS011;7383;52.354;9.756;2023-02-20T06:58:40;5.72;;;5.18;;
14592;SDS011;7383;52.354;9.756;2023-02-20T07:01:35;6.65;;;5.40;;
14592;SDS011;7383;52.354;9.756;2023-02-20T07:04:04;6.05;;;5.03;;
14592;SDS011;7383;52.354;9.756;2023-02-20T07:06:31;5.15;;;4.68;;
14592;SDS011;7383;52.354;9.756;2023-02-20T07:08:58;6.40;;;5.75;;
14592;SDS011;7383;52.354;9.756;2023-02-20T07:11:24;5.88;;;5.28;;
14592;SDS011;7383;52.354;9.756;2023-02-20T07:13:52;6.45;;;5.50;;
14592;SDS011;7383;52.354;9.756;2023-02-20T07:16:19;5.65;;;4.80;;
14592;SDS011;7383;52.354;9.756;2023-02-20T07:18:45;5.60;;;4.93;;
14592;SDS011;7383;52.354;9.756;2023-02-20T07:21:12;6.25;;;5.65;;
14592;SDS011;7383;52.354;9.756;2023-02-20T07:23:38;7.25;;;6.30;;
14592;SDS011;7383;52.354;9.756;2023-02-20T07:26:05;8.10;;;6.88;;
14592;SDS011;7383;52.354;9.756;2023-02-20T07:28:39;6.53;;;5.90;;
14592;SDS011;7383;52.354;9.756;2023-02-20T07:31:10;7.22;;;6.07;;
14592;SDS011;7383;52.354;9.756;2023-02-20T07:33:39;6.57;;;5.93;;
14592;SDS011;7383;52.354;9.756;2023-02-20T07:36:07;7.60;;;6.57;;
14592;SDS011;7383;52.354;9.756;2023-02-20T07:38:51;6.35;;;5.75;;
14592;SDS011;7383;52.354;9.756;2023-02-20T07:41:21;7.55;;;6.78;;
14592;SDS011;7383;52.354;9.756;2023-02-20T07:43:48;7.10;;;6.40;;
14592;SDS011;7383;52.354;9.756;2023-02-20T07:46:16;7.28;;;6.57;;
14592;SDS011;7383;52.354;9.756;2023-02-20T07:48:42;8.68;;;7.78;;
14592;SDS011;7383;52.354;9.756;2023-02-20T07:51:09;7.63;;;6.93;;
14592;SDS011;7383;52.354;9.756;2023-02-20T07:53:58;8.80;;;8.00;;
14592;SDS011;7383;52.354;9.756;2023-02-20T07:56:24;8.20;;;7.45;;
14592;SDS011;7383;52.354;9.756;2023-02-20T07:59:08;8.95;;;7.15;;
14592;SDS011;7383;52.354;9.756;2023-02-20T08:01:46;8.50;;;7.57;;
14592;SDS011;7383;52.354;9.756;2023-02-20T08:04:17;9.18;;;8.23;;
14592;SDS011;7383;52.354;9.756;2023-02-20T08:07:10;7.97;;;7.28;;
14592;SDS011;7383;52.354;9.756;2023-02-20T08:09:46;8.25;;;7.45;;
14592;SDS011;7383;52.354;9.756;2023-02-20T08:12:13;8.50;;;7.70;;
14592;SDS011;7383;52.354;9.756;2023-02-20T08:14:43;8.95;;;8.05;;
14592;SDS011;7383;52.354;9.756;2023-02-20T08:17:23;8.57;;;7.30;;
14592;SDS011;7383;52.354;9.756;2023-02-20T08:20:13;8.30;;;7.45;;
14592;SDS011;7383;52.354;9.756;2023-02-20T08:22:43;9.27;;;8.48;;
14592;SDS011;7383;52.354;9.756;2023-02-20T08:25:13;10.43;;;9.50;;
14592;SDS011;7383;52.354;9.756;2023-02-20T08:27:43;9.57;;;8.68;;
14592;SDS011;7383;52.354;9.756;2023-02-20T08:30:11;9.98;;;8.95;;
14592;SDS011;7383;52.354;9.756;2023-02-20T08:32:43;10.00;;;9.10;;
14592;SDS011;7383;52.354;9.756;2023-02-20T08:35:10;9.95;;;9.07;;
14592;SDS011;7383;52.354;9.756;2023-02-20T08:37:36;11.27;;;10.18;;
14592;SDS011;7383;52.354;9.756;2023-02-20T08:40:03;11.23;;;10.13;;
14592;SDS011;7383;52.354;9.756;2023-02-20T08:42:32;12.85;;;11.60;;
14592;SDS011;7383;52.354;9.756;2023-02-20T08:44:59;12.40;;;11.20;;
14592;SDS011;7383;52.354;9.756;2023-02-20T08:47:25;12.43;;;11.23;;
14592;SDS011;7383;52.354;9.756;2023-02-20T08:49:53;12.88;;;11.68;;
14592;SDS011;7383;52.354;9.756;2023-02-20T08:52:20;12.82;;;11.52;;
14592;SDS011;7383;52.354;9.756;2023-02-20T08:54:46;12.10;;;11.00;;
14592;SDS011;7383;52.354;9.756;2023-02-20T08:57:13;12.73;;;11.52;;
14592;SDS011;7383;52.354;9.756;2023-02-20T08:59:40;12.38;;;11.25;;
14592;SDS011;7383;52.354;9.756;2023-02-20T09:02:07;13.77;;;12.27;;
14592;SDS011;7383;52.354;9.756;2023-02-20T09:04:43;14.10;;;12.70;;
14592;SDS011;7383;52.354;9.756;2023-02-20T09:07:12;12.60;;;11.45;;
14592;SDS011;7383;52.354;9.756;2023-02-20T09:09:39;13.00;;;11.63;;
14592;SDS011;7383;52.354;9.756;2023-02-20T09:12:06;14.77;;;13.13;;
14592;SDS011;7383;52.354;9.756;2023-02-20T09:14:33;13.93;;;12.63;;
14592;SDS011;7383;52.354;9.756;2023-02-20T09:17:02;13.40;;;12.10;;
14592;SDS011;7383;52.354;9.756;2023-02-20T09:50:17;16.30;;;14.10;;
14592;SDS011;7383;52.354;9.756;2023-02-20T09:52:57;15.35;;;13.80;;
14592;SDS011;7383;52.354;9.756;2023-02-20T09:55:40;16.60;;;14.80;;
14592;SDS011;7383;52.354;9.756;2023-02-20T09:58:17;14.07;;;12.77;;
14592;SDS011;7383;52.354;9.756;2023-02-20T10:00:50;14.30;;;13.05;;
14592;SDS011;7383;52.354;9.756;2023-02-20T10:03:38;14.75;;;13.25;;
14592;SDS011;7383;52.354;9.756;2023-02-20T10:06:24;16.27;;;14.68;;
14592;SDS011;7383;52.354;9.756;2023-02-20T10:12:04;13.40;;;12.10;;
14592;SDS011;7383;52.354;9.756;2023-02-20T10:14:49;14.73;;;13.32;;
14592;SDS011;7383;52.354;9.756;2023-02-20T10:17:27;14.05;;;12.63;;
14592;SDS011;7383;52.354;9.756;2023-02-20T10:30:28;13.73;;;12.35;;
14592;SDS011;7383;52.354;9.756;2023-02-20T10:33:09;14.25;;;12.85;;
14592;SDS011;7383;52.354;9.756;2023-02-20T10:35:54;13.85;;;12.48;;
14592;SDS011;7383;52.354;9.756;2023-02-20T10:38:50;14.63;;;13.13;;
14592;SDS011;7383;52.354;9.756;2023-02-20T10:41:29;14.25;;;12.85;;
14592;SDS011;7383;52.354;9.756;2023-02-20T12:03:13;19.95;;;17.90;;
14592;SDS011;7383;52.354;9.756;2023-02-20T12:05:46;18.25;;;16.38;;
14592;SDS011;7383;52.354;9.756;2023-02-20T12:25:14;20.50;;;16.77;;
14592;SDS011;7383;52.354;9.756;2023-02-20T12:33:58;21.65;;;19.35;;
14592;SDS011;7383;52.354;9.756;2023-02-20T12:40:55;17.17;;;14.75;;
14592;SDS011;7383;52.354;9.756;2023-02-20T12:42:56;16.42;;;14.00;;
14592;SDS011;7383;52.354;9.756;2023-02-20T12:45:32;18.65;;;15.80;;
14592;SDS011;7383;52.354;9.756;2023-02-20T12:48:11;15.70;;;14.05;;
14592;SDS011;7383;52.354;9.756;2023-02-20T12:50:54;15.00;;;13.40;;
14592;SDS011;7383;52.354;9.756;2023-02-20T12:56:39;17.92;;;14.77;;
14592;SDS011;7383;52.354;9.756;2023-02-20T12:59:17;16.90;;;14.63;;
14592;SDS011;7383;52.354;9.756;2023-02-20T13:02:01;16.65;;;14.48;;
14592;SDS011;7383;52.354;9.756;2023-02-20T13:04:41;18.85;;;14.38;;
14592;SDS011;7383;52.354;9.756;2023-02-20T13:07:23;17.27;;;12.75;;
14592;SDS011;7383;52.354;9.756;2023-02-20T13:09:56;16.13;;;13.73;;
14592;SDS011;7383;52.354;9.756;2023-02-20T13:12:28;17.38;;;13.13;;
14592;SDS011;7383;52.354;9.756;2023-02-20T13:14:58;14.90;;;12.05;;
14592;SDS011;7383;52.354;9.756;2023-02-20T13:17:34;14.73;;;11.20;;
14592;SDS011;7383;52.354;9.756;2023-02-20T13:20:09;17.60;;;13.90;;
14592;SDS011;7383;52.354;9.756;2023-02-20T13:22:42;15.90;;;12.82;;
14592;SDS011;7383;52.354;9.756;2023-02-20T13:28:34;16.08;;;12.65;;
14592;SDS011;7383;52.354;9.756;2023-02-20T13:34:45;14.23;;;12.73;;
14592;SDS011;7383;52.354;9.756;2023-02-20T13:53:18;12.07;;;9.88;;
14592;SDS011;7383;52.354;9.756;2023-02-20T13:55:46;11.18;;;9.07;;
14592;SDS011;7383;52.354;9.756;2023-02-20T14:11:14;11.73;;;9.63;;
14592;SDS011;7383;52.354;9.756;2023-02-20T14:14:19;11.25;;;9.43;;
14592;SDS011;7383;52.354;9.756;2023-02-20T14:17:32;11.73;;;10.18;;
14592;SDS011;7383;52.354;9.756;2023-02-20T14:23:18;10.35;;;8.75;;
14592;SDS011;7383;52.354;9.756;2023-02-20T14:26:03;9.57;;;8.60;;
14592;SDS011;7383;52.354;9.756;2023-02-20T14:28:51;9.88;;;8.88;;
14592;SDS011;7383;52.354;9.756;2023-02-20T14:31:41;9.93;;;7.75;;
14592;SDS011;7383;52.354;9.756;2023-02-20T14:34:27;11.23;;;9.02;;
14592;SDS011;7383;52.354;9.756;2023-02-20T14:37:20;8.48;;;7.25;;
14592;SDS011;7383;52.354;9.756;2023-02-20T14:46:54;7.53;;;6.70;;
14592;SDS011;7383;52.354;9.756;2023-02-20T14:50:29;7.55;;;6.85;;
14592;SDS011;7383;52.354;9.756;2023-02-20T14:53:15;8.13;;;6.78;;
14592;SDS011;7383;52.354;9.756;2023-02-20T15:11:48;8.85;;;7.68;;
14592;SDS011;7383;52.354;9.756;2023-02-20T15:18:04;8.13;;;7.32;;
14592;SDS011;7383;52.354;9.756;2023-02-20T15:20:36;8.82;;;7.40;;
14592;SDS011;7383;52.354;9.756;2023-02-20T15:23:07;7.40;;;6.70;;
14592;SDS011;7383;52.354;9.756;2023-02-20T15:25:34;8.50;;;7.55;;
14592;SDS011;7383;52.354;9.756;2023-02-20T15:28:04;9.65;;;8.68;;
14592;SDS011;7383;52.354;9.756;2023-02-20T15:30:33;8.50;;;7.68;;
14592;SDS011;7383;52.354;9.756;2023-02-20T15:33:00;8.82;;;7.75;;
14592;SDS011;7383;52.354;9.756;2023-02-20T15:35:28;8.32;;;7.43;;
14592;SDS011;7383;52.354;9.756;2023-02-20T15:37:57;8.02;;;7.07;;
14592;SDS011;7383;52.354;9.756;2023-02-20T15:40:26;13.45;;;9.30;;
14592;SDS011;7383;52.354;9.756;2023-02-20T15:42:54;10.65;;;8.15;;
14592;SDS011;7383;52.354;9.756;2023-02-20T15:45:22;10.65;;;8.15;;
14592;SDS011;7383;52.354;9.756;2023-02-20T15:47:49;8.18;;;7.18;;
14592;SDS011;7383;52.354;9.756;2023-02-20T15:50:16;9.43;;;7.68;;
14592;SDS011;7383;52.354;9.756;2023-02-20T15:52:43;8.15;;;7.35;;
14592;SDS011;7383;52.354;9.756;2023-02-20T15:55:13;7.80;;;6.85;;
14592;SDS011;7383;52.354;9.756;2023-02-20T15:57:41;7.50;;;6.70;;
14592;SDS011;7383;52.354;9.756;2023-02-20T16:00:10;9.38;;;7.90;;
14592;SDS011;7383;52.354;9.756;2023-02-20T16:02:45;7.80;;;6.85;;
14592;SDS011;7383;52.354;9.756;2023-02-20T16:05:12;8.25;;;7.45;;
14592;SDS011;7383;52.354;9.756;2023-02-20T16:07:39;8.10;;;6.63;;
14592;SDS011;7383;52.354;9.756;2023-02-20T16:10:07;8.00;;;7.03;;
14592;SDS011;7383;52.354;9.756;2023-02-20T16:12:41;7.50;;;6.80;;
14592;SDS011;7383;52.354;9.756;2023-02-20T16:15:15;7.57;;;6.72;;
14592;SDS011;7383;52.354;9.756;2023-02-20T16:17:51;6.95;;;6.25;;
14592;SDS011;7383;52.354;9.756;2023-02-20T16:20:19;7.43;;;6.70;;
14592;SDS011;7383;52.354;9.756;2023-02-20T16:22:48;6.97;;;6.22;;
14592;SDS011;7383;52.354;9.756;2023-02-20T16:25:16;6.05;;;5.43;;
14592;SDS011;7383;52.354;9.756;2023-02-20T16:27:45;6.07;;;5.55;;
14592;SDS011;7383;52.354;9.756;2023-02-20T16:30:21;5.65;;;5.15;;
14592;SDS011;7383;52.354;9.756;2023-02-20T16:33:11;4.97;;;4.57;;
14592;SDS011;7383;52.354;9.756;2023-02-20T16:35:53;5.70;;;5.20;;
14592;SDS011;7383;52.354;9.756;2023-02-20T16:38:22;6.57;;;5.95;;
14592;SDS011;7383;52.354;9.756;2023-02-20T16:40:49;6.13;;;5.22;;
14592;SDS011;7383;52.354;9.756;2023-02-20T16:43:18;6.07;;;5.47;;
14592;SDS011;7383;52.354;9.756;2023-02-20T16:45:47;5.97;;;5.47;;
14592;SDS011;7383;52.354;9.756;2023-02-20T16:48:17;7.00;;;6.40;;
14592;SDS011;7383;52.354;9.756;2023-02-20T16:50:46;6.70;;;6.10;;
14592;SDS011;7383;52.354;9.756;2023-02-20T16:53:17;7.10;;;6.03;;
14592;SDS011;7383;52.354;9.756;2023-02-20T16:56:04;6.32;;;5.72;;
14592;SDS011;7383;52.354;9.756;2023-02-20T16:58:31;5.78;;;5.20;;
14592;SDS011;7383;52.354;9.756;2023-02-20T17:00:59;6.18;;;5.68;;
14592;SDS011;7383;52.354;9.756;2023-02-20T17:03:27;5.90;;;5.30;;
14592;SDS011;7383;52.354;9.756;2023-02-20T17:05:56;6.43;;;5.25;;
14592;SDS011;7383;52.354;9.756;2023-02-20T17:08:24;5.78;;;5.28;;
14592;SDS011;7383;52.354;9.756;2023-02-20T17:10:53;5.93;;;5.43;;
14592;SDS011;7383;52.354;9.756;2023-02-20T17:13:23;5.40;;;5.00;;
14592;SDS011;7383;52.354;9.756;2023-02-20T17:15:52;5.85;;;5.35;;
14592;SDS011;7383;52.354;9.756;2023-02-20T17:18:18;5.20;;;4.80;;
14592;SDS011;7383;52.354;9.756;2023-02-20T17:20:51;6.10;;;5.50;;
14592;SDS011;7383;52.354;9.756;2023-02-20T17:23:21;4.57;;;4.18;;
14592;SDS011;7383;52.354;9.756;2023-02-20T17:25:54;5.80;;;5.35;;
14592;SDS011;7383;52.354;9.756;2023-02-20T17:28:25;4.35;;;3.97;;
14592;SDS011;7383;52.354;9.756;2023-02-20T17:31:35;5.00;;;4.60;;
14592;SDS011;7383;52.354;9.756;2023-02-20T17:34:03;4.90;;;4.50;;
14592;SDS011;7383;52.354;9.756;2023-02-20T17:36:31;5.00;;;4.60;;
14592;SDS011;7383;52.354;9.756;2023-02-20T17:38:58;5.30;;;4.90;;
14592;SDS011;7383;52.354;9.756;2023-02-20T17:41:25;4.90;;;4.50;;
14592;SDS011;7383;52.354;9.756;2023-02-20T17:43:51;5.10;;;4.60;;
14592;SDS011;7383;52.354;9.756;2023-02-20T17:46:22;4.63;;;4.22;;
14592;SDS011;7383;52.354;9.756;2023-02-20T17:49:02;5.70;;;5.20;;
14592;SDS011;7383;52.354;9.756;2023-02-20T17:51:28;5.45;;;5.00;;
14592;SDS011;7383;52.354;9.756;2023-02-20T17:54:02;5.50;;;5.00;;
14592;SDS011;7383;52.354;9.756;2023-02-20T17:56:29;5.03;;;4.63;;
14592;SDS011;7383;52.354;9.756;2023-02-20T17:58:55;4.65;;;4.30;;
14592;SDS011;7383;52.354;9.756;2023-02-20T18:01:22;5.40;;;5.00;;
14592;SDS011;7383;52.354;9.756;2023-02-20T18:03:51;4.70;;;4.30;;
14592;SDS011;7383;52.354;9.756;2023-02-20T18:06:18;4.88;;;4.47;;
14592;SDS011;7383;52.354;9.756;2023-02-20T18:08:45;5.85;;;5.35;;
14592;SDS011;7383;52.354;9.756;2023-02-20T18:11:14;5.05;;;4.65;;
14592;SDS011;7383;52.354;9.756;2023-02-20T18:13:41;5.00;;;4.60;;
14592;SDS011;7383;52.354;9.756;2023-02-20T18:16:07;5.68;;;5.15;;
14592;SDS011;7383;52.354;9.756;2023-02-20T18:18:34;5.20;;;4.80;;
14592;SDS011;7383;52.354;9.756;2023-02-20T18:21:01;5.07;;;4.68;;
14592;SDS011;7383;52.354;9.756;2023-02-20T18:23:27;5.47;;;4.97;;
14592;SDS011;7383;52.354;9.756;2023-02-20T18:25:54;5.85;;;5.32;;
14592;SDS011;7383;52.354;9.756;2023-02-20T18:28:22;5.65;;;5.15;;
14592;SDS011;7383;52.354;9.756;2023-02-20T18:30:49;6.00;;;5.50;;
14592;SDS011;7383;52.354;9.756;2023-02-20T18:33:16;5.40;;;4.88;;
14592;SDS011;7383;52.354;9.756;2023-02-20T18:35:42;5.90;;;5.30;;
14592;SDS011;7383;52.354;9.756;2023-02-20T18:38:09;6.15;;;5.63;;
14592;SDS011;7383;52.354;9.756;2023-02-20T18:40:39;6.28;;;5.68;;
14592;SDS011;7383;52.354;9.756;2023-02-20T18:43:16;6.05;;;5.45;;
14592;SDS011;7383;52.354;9.756;2023-02-20T18:48:46;5.82;;;5.32;;
14592;SDS011;7383;52.354;9.756;2023-02-20T18:54:02;6.45;;;5.88;;
14592;SDS011;7383;52.354;9.756;2023-02-20T18:56:54;6.63;;;6.03;;
14592;SDS011;7383;52.354;9.756;2023-02-20T18:59:23;6.93;;;6.22;;
14592;SDS011;7383;52.354;9.756;2023-02-20T19:01:52;6.57;;;5.97;;
14592;SDS011;7383;52.354;9.756;2023-02-20T19:04:51;6.40;;;5.90;;
14592;SDS011;7383;52.354;9.756;2023-02-20T19:07:21;6.65;;;5.95;;
14592;SDS011;7383;52.354;9.756;2023-02-20T19:09:56;6.03;;;5.43;;
14592;SDS011;7383;52.354;9.756;2023-02-20T19:12:27;6.25;;;5.65;;
14592;SDS011;7383;52.354;9.756;2023-02-20T19:14:57;6.93;;;6.22;;
14592;SDS011;7383;52.354;9.756;2023-02-20T19:17:24;8.88;;;7.80;;
14592;SDS011;7383;52.354;9.756;2023-02-20T19:19:51;7.47;;;6.85;;
14592;SDS011;7383;52.354;9.756;2023-02-20T19:22:18;7.60;;;6.88;;